Time;durP1;ratioP1;P1;durP2;ratioP2;P2;SDS_P1;SDS_P2;PMS_P1;PMS_P2;Temp;Humidity;BMP_temperature;BMP_pressure;BME280_temperature;BME280_humidity;BME280_pressure;Samples;Min_cycle;Max_cycle;Signal;HPM_P1;HPM_P2
2023/04/29 00:00:42;;;;;;;31.60;23.92;;;11.40;82.90;;;;;;5019120;28;20047;-79
2023/04/29 00:03:08;;;;;;;25.60;21.38;;;11.40;82.90;;;;;;5020616;28;20559;-78
2023/04/29 00:05:34;;;;;;;30.17;22.60;;;11.30;82.70;;;;;;5025818;28;20056;-77
2023/04/29 00:08:00;;;;;;;26.75;21.95;;;11.30;82.70;;;;;;5010735;28;20061;-78
2023/04/29 00:10:26;;;;;;;25.05;21.30;;;11.30;82.60;;;;;;5023865;28;20147;-78
2023/04/29 00:12:51;;;;;;;29.02;22.33;;;11.30;82.60;;;;;;4989231;28;20033;-78
2023/04/29 00:15:17;;;;;;;30.13;23.60;;;11.30;82.60;;;;;;5032183;28;20147;-77
2023/04/29 00:17:44;;;;;;;28.80;21.52;;;11.30;82.60;;;;;;5015861;28;20030;-77
2023/04/29 00:20:11;;;;;;;25.58;21.75;;;11.30;82.50;;;;;;5028900;28;20507;-78
2023/04/29 00:22:37;;;;;;;26.55;20.92;;;11.30;82.50;;;;;;5029567;28;20405;-78
2023/04/29 00:25:04;;;;;;;30.52;22.45;;;11.30;82.50;;;;;;5020422;28;20033;-77
2023/04/29 00:27:31;;;;;;;29.48;22.65;;;11.30;82.40;;;;;;5031905;28;20479;-78
2023/04/29 00:29:57;;;;;;;28.55;22.00;;;11.30;82.30;;;;;;5037848;28;20038;-78
2023/04/29 00:32:22;;;;;;;25.20;21.33;;;11.20;82.30;;;;;;5030539;28;20094;-78
2023/04/29 00:34:48;;;;;;;28.70;21.10;;;11.20;82.30;;;;;;5028951;28;21478;-78
2023/04/29 00:37:15;;;;;;;28.10;21.45;;;11.30;82.40;;;;;;5015998;28;20037;-77
2023/04/29 00:39:40;;;;;;;30.38;22.38;;;11.30;82.30;;;;;;5027476;28;20172;-74
2023/04/29 00:42:08;;;;;;;29.92;22.63;;;11.30;82.30;;;;;;5011158;28;20042;-74
2023/04/29 00:44:34;;;;;;;28.83;20.27;;;11.20;82.10;;;;;;5027775;28;20116;-74
2023/04/29 00:46:59;;;;;;;26.65;20.67;;;11.20;82.10;;;;;;5032173;28;20112;-74
2023/04/29 00:49:26;;;;;;;26.85;20.73;;;11.20;82.10;;;;;;5024891;28;20056;-74
2023/04/29 00:51:55;;;;;;;37.00;23.83;;;11.20;82.10;;;;;;5023613;28;20587;-74
2023/04/29 00:54:21;;;;;;;24.98;19.65;;;11.20;82.20;;;;;;5030901;28;20128;-74
2023/04/29 00:56:47;;;;;;;29.90;22.08;;;11.20;82.10;;;;;;5026309;28;20145;-74
2023/04/29 00:59:15;;;;;;;27.98;21.42;;;11.20;82.10;;;;;;5019441;28;20083;-74
2023/04/29 01:01:41;;;;;;;26.73;20.00;;;11.20;82.40;;;;;;5023348;28;20041;-74
2023/04/29 01:04:07;;;;;;;27.90;21.70;;;11.20;81.90;;;;;;5004527;28;20064;-74
2023/04/29 01:06:42;;;;;;;25.00;19.70;;;11.20;81.90;;;;;;5023402;28;20076;-73
2023/04/29 01:09:27;;;;;;;26.90;21.02;;;11.20;82.00;;;;;;5015615;28;20037;-74
2023/04/29 01:12:07;;;;;;;29.23;21.00;;;11.20;81.80;;;;;;5025395;28;20036;-74
2023/04/29 01:14:36;;;;;;;33.47;21.50;;;11.20;81.90;;;;;;5020480;28;20129;-74
2023/04/29 01:17:17;;;;;;;25.80;19.00;;;11.10;81.80;;;;;;5015193;28;20037;-74
2023/04/29 01:19:54;;;;;;;27.42;20.33;;;11.20;81.80;;;;;;5020516;28;20042;-74
2023/04/29 01:22:21;;;;;;;27.83;19.73;;;11.20;81.80;;;;;;5024160;28;20037;-74
2023/04/29 01:24:48;;;;;;;31.13;21.65;;;11.20;81.80;;;;;;5021134;28;20041;-73
2023/04/29 01:27:40;;;;;;;27.52;20.60;;;11.10;81.70;;;;;;5022098;28;20526;-73
2023/04/29 01:30:37;;;;;;;27.58;21.77;;;11.10;81.60;;;;;;5022947;28;20105;-74
2023/04/29 01:33:12;;;;;;;34.30;22.10;;;11.10;81.70;;;;;;5023393;28;20034;-74
2023/04/29 01:36:08;;;;;;;26.20;19.60;;;11.10;81.80;;;;;;5018914;28;20034;-74
2023/04/29 01:38:59;;;;;;;30.02;21.38;;;11.10;81.70;;;;;;5025272;28;20037;-74
2023/04/29 01:41:39;;;;;;;31.80;21.80;;;11.10;81.70;;;;;;5024551;28;20061;-74
2023/04/29 01:44:09;;;;;;;27.48;19.67;;;11.10;81.80;;;;;;5026971;28;20053;-74
2023/04/29 01:46:36;;;;;;;27.13;21.45;;;11.10;81.80;;;;;;5024538;28;20038;-73
2023/04/29 01:49:02;;;;;;;26.48;20.25;;;11.10;81.80;;;;;;5028123;28;20034;-74
2023/04/29 01:51:28;;;;;;;23.25;19.40;;;11.10;81.90;;;;;;5019352;28;20124;-74
2023/04/29 01:53:54;;;;;;;23.70;19.00;;;11.10;81.80;;;;;;5027355;28;20049;-74
2023/04/29 01:56:20;;;;;;;21.20;16.88;;;11.10;81.80;;;;;;5019473;28;20053;-74
2023/04/29 01:58:45;;;;;;;26.80;20.65;;;11.10;81.80;;;;;;5016295;28;20176;-74
2023/04/29 02:01:11;;;;;;;23.55;18.80;;;11.00;81.60;;;;;;5020284;28;20038;-74
2023/04/29 02:03:37;;;;;;;28.45;20.15;;;11.10;81.70;;;;;;5003630;28;20037;-74
2023/04/29 02:06:05;;;;;;;29.20;20.63;;;11.10;81.60;;;;;;5007777;28;20545;-74
2023/04/29 02:08:31;;;;;;;25.75;19.10;;;11.10;81.50;;;;;;5018213;28;20041;-74
2023/04/29 02:10:58;;;;;;;28.77;20.52;;;11.10;81.50;;;;;;5021052;28;20041;-74
2023/04/29 02:13:24;;;;;;;26.10;20.20;;;11.10;81.50;;;;;;5027831;28;20396;-74
2023/04/29 02:15:50;;;;;;;28.00;19.17;;;11.00;81.40;;;;;;4997925;28;20041;-74
2023/04/29 02:18:16;;;;;;;21.45;16.85;;;11.00;81.40;;;;;;5015925;28;20045;-74
2023/04/29 02:20:42;;;;;;;29.48;20.48;;;11.00;81.50;;;;;;5008922;28;20489;-74
2023/04/29 02:23:08;;;;;;;28.35;19.33;;;11.00;81.50;;;;;;5021341;28;20105;-74
2023/04/29 02:25:33;;;;;;;30.90;18.90;;;11.00;81.50;;;;;;5038644;28;20116;-74
2023/04/29 02:27:59;;;;;;;26.60;18.70;;;11.00;81.40;;;;;;5014627;28;20553;-74
2023/04/29 02:30:25;;;;;;;25.73;18.80;;;11.00;81.40;;;;;;5032022;28;20029;-75
2023/04/29 02:32:51;;;;;;;26.33;18.35;;;11.00;81.40;;;;;;5020298;28;20549;-74
2023/04/29 02:35:17;;;;;;;26.38;18.27;;;11.00;81.30;;;;;;5004734;28;20049;-74
2023/04/29 02:37:44;;;;;;;24.45;18.33;;;11.00;81.30;;;;;;5023230;28;20089;-74
2023/04/29 02:40:10;;;;;;;25.42;19.15;;;11.00;81.30;;;;;;5035503;28;20036;-74
2023/04/29 02:42:36;;;;;;;25.52;18.73;;;11.00;81.10;;;;;;5031025;28;20085;-74
2023/04/29 02:45:02;;;;;;;29.02;19.63;;;11.00;81.10;;;;;;5005228;28;20370;-75
2023/04/29 02:47:28;;;;;;;31.90;22.02;;;11.00;81.00;;;;;;5038548;28;20037;-73
2023/04/29 02:49:54;;;;;;;29.15;19.40;;;11.00;81.00;;;;;;5015528;28;20030;-74
2023/04/29 02:52:20;;;;;;;25.42;17.67;;;11.00;80.90;;;;;;4997042;28;20131;-74
2023/04/29 02:54:45;;;;;;;20.55;16.80;;;11.00;80.90;;;;;;5015318;28;20373;-74
2023/04/29 02:57:11;;;;;;;24.75;18.23;;;10.90;80.90;;;;;;4998011;28;20125;-74
2023/04/29 02:59:37;;;;;;;25.90;19.13;;;10.90;80.90;;;;;;5032032;28;20048;-78
2023/04/29 03:02:03;;;;;;;24.73;19.05;;;10.90;80.90;;;;;;5001782;28;20042;-78
2023/04/29 03:04:28;;;;;;;26.73;18.23;;;10.90;81.00;;;;;;5027750;28;20525;-78
2023/04/29 03:06:58;;;;;;;24.83;18.15;;;10.90;81.00;;;;;;5014820;28;20115;-78
2023/04/29 03:09:24;;;;;;;26.13;18.35;;;10.90;80.90;;;;;;5041074;28;20124;-78
2023/04/29 03:11:49;;;;;;;22.52;17.13;;;10.90;80.80;;;;;;5021975;28;20116;-78
2023/04/29 03:14:15;;;;;;;24.75;19.73;;;10.90;80.80;;;;;;5021182;28;20505;-78
2023/04/29 03:16:41;;;;;;;24.33;18.85;;;10.90;80.70;;;;;;5011429;28;20042;-78
2023/04/29 03:19:07;;;;;;;22.65;17.20;;;10.90;80.60;;;;;;5024070;28;20397;-74
2023/04/29 03:21:33;;;;;;;22.98;17.58;;;10.80;80.50;;;;;;5018223;28;20485;-75
2023/04/29 03:23:59;;;;;;;23.95;18.15;;;10.90;80.60;;;;;;5038452;28;20138;-75
2023/04/29 03:26:24;;;;;;;23.95;16.10;;;10.90;80.50;;;;;;5044296;28;20043;-75
2023/04/29 03:28:50;;;;;;;23.77;18.88;;;10.80;80.50;;;;;;5029135;28;20519;-75
2023/04/29 03:31:16;;;;;;;24.02;18.20;;;10.80;80.50;;;;;;5024714;28;20380;-75
2023/04/29 03:33:42;;;;;;;23.30;17.13;;;10.80;80.50;;;;;;5006606;28;20048;-75
2023/04/29 03:36:08;;;;;;;23.30;17.10;;;10.80;80.60;;;;;;4994791;28;20048;-75
2023/04/29 03:38:34;;;;;;;20.90;16.35;;;10.80;80.60;;;;;;4992029;28;20037;-75
2023/04/29 03:41:01;;;;;;;23.45;18.33;;;10.70;80.60;;;;;;5026712;28;20432;-75
2023/04/29 03:43:27;;;;;;;22.98;17.15;;;10.70;80.60;;;;;;5031379;28;20090;-75
2023/04/29 03:45:52;;;;;;;21.90;17.35;;;10.70;80.70;;;;;;5036549;28;20439;-75
2023/04/29 03:48:21;;;;;;;26.45;17.92;;;10.70;80.80;;;;;;4995643;28;20045;-75
2023/04/29 03:50:47;;;;;;;26.67;17.80;;;10.70;80.80;;;;;;5037658;28;20068;-74
2023/04/29 03:53:13;;;;;;;23.02;18.20;;;10.70;80.80;;;;;;4993036;28;20072;-75
2023/04/29 03:55:39;;;;;;;26.33;17.85;;;10.60;80.90;;;;;;5034048;28;20076;-75
2023/04/29 03:58:05;;;;;;;23.55;17.05;;;10.60;80.90;;;;;;5007479;28;20056;-74
2023/04/29 04:00:31;;;;;;;24.80;18.90;;;10.60;81.00;;;;;;5014730;28;20034;-75
2023/04/29 04:02:57;;;;;;;24.05;18.17;;;10.60;81.10;;;;;;5031615;28;20111;-75
2023/04/29 04:05:24;;;;;;;26.30;19.27;;;10.60;81.10;;;;;;5043580;28;20032;-75
2023/04/29 04:07:53;;;;;;;22.48;17.70;;;10.60;81.20;;;;;;5032380;28;20041;-75
2023/04/29 04:10:19;;;;;;;28.75;19.00;;;10.60;81.30;;;;;;5026072;28;20052;-75
2023/04/29 04:12:46;;;;;;;27.52;18.70;;;10.60;81.30;;;;;;5026541;28;20048;-75
2023/04/29 04:15:12;;;;;;;28.83;19.30;;;10.60;81.30;;;;;;5005806;28;20036;-75
2023/04/29 04:17:38;;;;;;;26.30;19.35;;;10.60;81.30;;;;;;5034426;28;20033;-75
2023/04/29 04:20:04;;;;;;;24.60;18.15;;;10.60;81.30;;;;;;5026810;28;20376;-75
2023/04/29 04:22:30;;;;;;;25.52;17.98;;;10.60;81.30;;;;;;5036147;28;20044;-75
2023/04/29 04:24:56;;;;;;;25.00;17.23;;;10.60;81.30;;;;;;5005222;28;20384;-75
2023/04/29 04:27:22;;;;;;;24.88;18.02;;;10.60;81.30;;;;;;5012442;28;20033;-75
2023/04/29 04:29:52;;;;;;;25.85;19.33;;;10.60;81.30;;;;;;5028529;28;20037;-75
2023/04/29 04:32:17;;;;;;;33.75;19.63;;;10.50;81.30;;;;;;5023476;28;20045;-75
2023/04/29 04:34:43;;;;;;;25.00;18.55;;;10.60;81.40;;;;;;5029452;28;20049;-75
2023/04/29 04:37:09;;;;;;;26.15;20.10;;;10.60;81.40;;;;;;5021914;28;20484;-75
2023/04/29 04:39:34;;;;;;;28.05;19.33;;;10.60;81.40;;;;;;5013035;28;20042;-75
2023/04/29 04:42:02;;;;;;;26.23;18.42;;;10.60;81.50;;;;;;5004320;28;20041;-75
2023/04/29 04:44:27;;;;;;;31.83;20.73;;;10.60;81.50;;;;;;5014291;28;20461;-75
2023/04/29 04:46:53;;;;;;;26.58;17.35;;;10.60;81.50;;;;;;5016897;28;20124;-75
2023/04/29 04:49:19;;;;;;;26.95;19.27;;;10.60;81.50;;;;;;5017567;28;20545;-75
2023/04/29 04:51:45;;;;;;;26.13;19.35;;;10.60;81.50;;;;;;5015670;28;20036;-75
2023/04/29 04:54:11;;;;;;;24.30;16.83;;;10.60;81.60;;;;;;5006163;28;20033;-75
2023/04/29 04:56:36;;;;;;;27.30;17.55;;;10.50;81.50;;;;;;5032680;28;20063;-75
2023/04/29 04:59:03;;;;;;;26.40;17.88;;;10.60;81.60;;;;;;5021255;28;20045;-75
2023/04/29 05:01:28;;;;;;;23.92;17.25;;;10.60;81.60;;;;;;5023697;28;20032;-75
2023/04/29 05:03:54;;;;;;;26.10;18.95;;;10.60;81.50;;;;;;4990727;28;20475;-75
2023/04/29 05:06:20;;;;;;;20.50;16.65;;;10.60;81.50;;;;;;5021516;28;20033;-75
2023/04/29 05:08:46;;;;;;;25.25;17.60;;;10.60;81.50;;;;;;5006205;28;20119;-74
2023/04/29 05:11:19;;;;;;;22.85;16.00;;;10.60;81.40;;;;;;5010713;28;20665;-75
2023/04/29 05:13:45;;;;;;;20.98;16.23;;;10.60;81.40;;;;;;5021835;28;20042;-75
2023/04/29 05:16:11;;;;;;;25.15;16.77;;;10.60;81.40;;;;;;5006701;28;20492;-75
2023/04/29 05:18:36;;;;;;;28.33;16.35;;;10.50;81.40;;;;;;5027410;28;20094;-75
2023/04/29 05:21:02;;;;;;;22.92;15.30;;;10.50;81.40;;;;;;5009494;28;20040;-75
2023/04/29 05:23:28;;;;;;;21.27;15.25;;;10.50;81.40;;;;;;5019769;28;20033;-75
2023/04/29 05:25:54;;;;;;;20.45;14.48;;;10.50;81.40;;;;;;5036387;28;20039;-74
2023/04/29 05:28:20;;;;;;;20.42;15.25;;;10.60;81.50;;;;;;5020171;28;20488;-75
2023/04/29 05:30:46;;;;;;;17.65;13.32;;;10.50;81.50;;;;;;5030520;28;20083;-75
2023/04/29 05:33:12;;;;;;;18.30;13.25;;;10.60;81.50;;;;;;5042036;28;20117;-75
2023/04/29 05:35:38;;;;;;;23.42;14.13;;;10.60;81.40;;;;;;5037528;28;20064;-75
2023/04/29 05:38:03;;;;;;;19.20;13.85;;;10.50;81.30;;;;;;5028324;28;20065;-75
2023/04/29 05:40:29;;;;;;;18.63;13.55;;;10.60;81.50;;;;;;5018112;28;20036;-75
2023/04/29 05:42:55;;;;;;;20.80;13.90;;;10.60;81.60;;;;;;5020544;28;20033;-75
2023/04/29 05:45:20;;;;;;;21.20;13.60;;;10.60;81.50;;;;;;5037243;28;20383;-75
2023/04/29 05:47:46;;;;;;;21.17;12.27;;;10.60;81.40;;;;;;5013964;28;20029;-75
2023/04/29 05:50:12;;;;;;;17.75;11.35;;;10.50;81.40;;;;;;5031583;28;20174;-75
2023/04/29 05:52:38;;;;;;;17.58;12.20;;;10.60;81.50;;;;;;5012754;28;20500;-75
2023/04/29 05:55:04;;;;;;;19.20;12.68;;;10.60;81.50;;;;;;5031764;28;20377;-74
2023/04/29 05:57:30;;;;;;;15.20;11.25;;;10.60;81.50;;;;;;5017276;28;20068;-75
2023/04/29 05:59:58;;;;;;;18.75;11.73;;;10.60;81.30;;;;;;5023306;28;20041;-75
2023/04/29 06:02:24;;;;;;;18.48;11.77;;;10.60;81.20;;;;;;5019922;28;20049;-75
2023/04/29 06:04:50;;;;;;;15.98;11.02;;;10.60;81.30;;;;;;5002682;28;20037;-75
2023/04/29 06:07:16;;;;;;;21.13;11.38;;;10.60;81.30;;;;;;5023322;28;20049;-75
2023/04/29 06:09:43;;;;;;;18.02;10.65;;;10.60;81.20;;;;;;5024545;28;20029;-75
2023/04/29 06:12:09;;;;;;;17.70;10.50;;;10.60;81.10;;;;;;5019577;28;20116;-75
2023/04/29 06:14:35;;;;;;;14.43;10.05;;;10.60;80.90;;;;;;5022283;28;20131;-75
2023/04/29 06:17:01;;;;;;;15.10;10.40;;;10.60;80.50;;;;;;5022423;28;20377;-75
2023/04/29 06:19:27;;;;;;;17.63;10.77;;;10.60;80.80;;;;;;5021102;28;20057;-75
2023/04/29 06:21:52;;;;;;;13.95;9.35;;;10.70;81.00;;;;;;5005951;28;20048;-75
2023/04/29 06:24:18;;;;;;;13.40;9.30;;;10.70;81.10;;;;;;4988281;28;20110;-75
2023/04/29 06:26:44;;;;;;;14.40;9.60;;;10.70;80.80;;;;;;5022186;28;20040;-75
2023/04/29 06:29:10;;;;;;;16.55;8.95;;;10.70;80.60;;;;;;5025248;28;20064;-74
2023/04/29 06:31:36;;;;;;;17.00;10.40;;;10.70;80.50;;;;;;5023972;28;21667;-74
2023/04/29 06:34:01;;;;;;;11.85;8.80;;;10.70;80.20;;;;;;5021691;28;20042;-75
2023/04/29 06:36:27;;;;;;;15.00;9.40;;;10.80;80.20;;;;;;5016306;28;20041;-75
2023/04/29 06:38:53;;;;;;;15.07;9.02;;;10.90;80.50;;;;;;5021506;28;20044;-74
2023/04/29 06:41:18;;;;;;;13.93;8.48;;;10.90;80.40;;;;;;5022925;28;20064;-75
2023/04/29 06:43:44;;;;;;;13.68;9.02;;;10.90;80.40;;;;;;5022209;28;20030;-74
2023/04/29 06:46:11;;;;;;;13.02;7.93;;;11.00;80.00;;;;;;5022222;28;20037;-75
2023/04/29 06:48:37;;;;;;;12.25;7.85;;;11.00;79.70;;;;;;5024262;28;20113;-75
2023/04/29 06:51:03;;;;;;;12.55;8.23;;;11.10;79.10;;;;;;5031266;28;20112;-75
2023/04/29 06:53:28;;;;;;;15.35;8.73;;;11.20;78.60;;;;;;5003521;28;20408;-75
2023/04/29 06:55:54;;;;;;;12.25;8.68;;;11.20;78.80;;;;;;5021838;28;20396;-76
2023/04/29 06:58:20;;;;;;;14.35;8.00;;;11.20;78.30;;;;;;5011569;28;20052;-76
2023/04/29 07:00:48;;;;;;;12.20;8.25;;;11.30;78.70;;;;;;4993378;28;20041;-76
2023/04/29 07:03:14;;;;;;;12.88;8.90;;;11.30;78.40;;;;;;5034379;28;20048;-76
2023/04/29 07:05:44;;;;;;;13.18;7.97;;;11.40;77.80;;;;;;5026606;28;20134;-75
2023/04/29 07:08:11;;;;;;;15.00;8.55;;;11.50;77.60;;;;;;5035865;28;20037;-76
2023/04/29 07:10:37;;;;;;;12.60;8.45;;;11.60;77.80;;;;;;5033108;28;20045;-76
2023/04/29 07:13:03;;;;;;;12.68;7.85;;;11.70;77.70;;;;;;5031901;28;20479;-76
2023/04/29 07:15:32;;;;;;;13.05;8.05;;;11.90;77.00;;;;;;5026076;28;20049;-76
2023/04/29 07:17:59;;;;;;;13.07;8.00;;;12.00;76.90;;;;;;5033994;28;20044;-76
2023/04/29 07:20:26;;;;;;;13.75;7.45;;;12.20;76.40;;;;;;5013770;28;20052;-77
2023/04/29 07:22:52;;;;;;;12.73;7.82;;;12.40;76.40;;;;;;5036235;28;20036;-77
2023/04/29 07:25:18;;;;;;;11.88;7.78;;;12.70;75.50;;;;;;5020744;28;20432;-77
2023/04/29 07:27:43;;;;;;;13.55;8.63;;;13.00;75.50;;;;;;4994424;28;20044;-76
2023/04/29 07:30:09;;;;;;;10.60;7.90;;;13.30;73.00;;;;;;5013644;28;20037;-77
2023/04/29 07:32:36;;;;;;;14.20;7.32;;;13.50;71.90;;;;;;5015772;28;20041;-77
2023/04/29 07:35:02;;;;;;;12.25;7.30;;;13.60;71.80;;;;;;5020833;28;20116;-76
2023/04/29 07:37:27;;;;;;;12.55;8.25;;;13.90;72.60;;;;;;5023246;28;20041;-77
2023/04/29 07:39:53;;;;;;;10.18;7.65;;;14.30;72.40;;;;;;5018822;28;20040;-76
2023/04/29 07:42:19;;;;;;;10.73;7.30;;;14.60;70.10;;;;;;5020777;28;20045;-77
2023/04/29 07:44:44;;;;;;;11.38;7.57;;;14.80;69.40;;;;;;5017079;28;20033;-79
2023/04/29 07:47:11;;;;;;;9.20;6.90;;;15.00;69.40;;;;;;5033136;28;20041;-79
2023/04/29 07:49:37;;;;;;;10.25;7.25;;;15.30;68.10;;;;;;5016479;28;20086;-79
2023/04/29 07:52:08;;;;;;;10.55;7.07;;;15.60;66.70;;;;;;5022961;28;20515;-80
2023/04/29 07:54:37;;;;;;;9.68;6.50;;;15.80;65.90;;;;;;5006907;28;20052;-77
2023/04/29 07:57:03;;;;;;;8.27;6.28;;;16.00;66.10;;;;;;5030493;28;20430;-77
2023/04/29 07:59:30;;;;;;;7.80;6.40;;;16.20;64.60;;;;;;5033124;28;20049;-78
2023/04/29 08:01:56;;;;;;;9.43;6.60;;;16.50;62.60;;;;;;5008710;28;20041;-77
2023/04/29 08:04:22;;;;;;;10.80;6.90;;;16.60;60.90;;;;;;5002222;28;20106;-77
2023/04/29 08:06:48;;;;;;;8.05;6.65;;;16.60;59.80;;;;;;5023797;28;20044;-77
2023/04/29 08:09:15;;;;;;;10.13;6.85;;;16.70;59.60;;;;;;5016712;28;20396;-77
2023/04/29 08:11:40;;;;;;;8.85;7.05;;;16.70;59.20;;;;;;5037438;28;20392;-78
2023/04/29 08:14:06;;;;;;;12.55;7.20;;;16.70;59.60;;;;;;5036874;28;20032;-77
2023/04/29 08:16:32;;;;;;;9.30;6.20;;;16.80;60.00;;;;;;5015148;28;20484;-76
2023/04/29 08:18:57;;;;;;;8.88;6.25;;;17.00;59.90;;;;;;5036716;28;20045;-76
2023/04/29 08:21:23;;;;;;;10.32;6.55;;;17.10;59.10;;;;;;5019928;28;20395;-76
2023/04/29 08:23:49;;;;;;;8.30;6.13;;;17.20;58.70;;;;;;5004769;28;20037;-77
2023/04/29 08:26:15;;;;;;;8.80;6.22;;;17.30;58.40;;;;;;5007983;28;20038;-77
2023/04/29 08:28:40;;;;;;;10.68;6.68;;;17.50;58.70;;;;;;5010603;28;20036;-76
2023/04/29 08:31:06;;;;;;;10.82;7.07;;;17.70;57.70;;;;;;5007348;28;20034;-76
2023/04/29 08:33:36;;;;;;;8.50;6.57;;;17.70;57.10;;;;;;5029673;28;20057;-77
2023/04/29 08:36:02;;;;;;;12.68;6.65;;;17.80;56.40;;;;;;5021623;28;20046;-76
2023/04/29 08:38:32;;;;;;;8.98;6.50;;;17.90;56.00;;;;;;5027193;28;20037;-77
2023/04/29 08:41:01;;;;;;;6.95;5.40;;;17.90;54.70;;;;;;5007343;28;20044;-75
2023/04/29 08:43:27;;;;;;;10.02;6.35;;;17.90;55.00;;;;;;5037117;28;20119;-75
2023/04/29 08:45:53;;;;;;;8.35;6.28;;;18.00;55.60;;;;;;5009344;28;20427;-74
2023/04/29 08:48:18;;;;;;;7.65;6.22;;;18.00;54.40;;;;;;5011919;28;20072;-78
2023/04/29 08:50:45;;;;;;;11.85;6.57;;;18.10;55.50;;;;;;5016408;28;20615;-77
2023/04/29 08:53:12;;;;;;;9.63;6.22;;;18.20;54.50;;;;;;5028320;28;20029;-78
2023/04/29 08:55:45;;;;;;;10.65;7.57;;;18.20;53.00;;;;;;4994639;28;20444;-74
2023/04/29 08:58:13;;;;;;;10.57;6.80;;;18.20;52.50;;;;;;5018237;28;20049;-74
2023/04/29 09:00:43;;;;;;;9.65;6.95;;;18.10;53.00;;;;;;5015944;28;20284;-77
2023/04/29 09:03:32;;;;;;;6.97;5.40;;;18.00;53.40;;;;;;5028653;28;20038;-77
2023/04/29 09:06:00;;;;;;;9.52;6.22;;;18.00;52.90;;;;;;5009669;28;20099;-77
2023/04/29 09:08:26;;;;;;;7.97;6.32;;;18.00;54.10;;;;;;5022400;28;20032;-78
2023/04/29 09:10:53;;;;;;;9.13;6.35;;;18.10;55.30;;;;;;5025878;28;20042;-78
2023/04/29 09:13:24;;;;;;;11.82;6.55;;;18.20;55.50;;;;;;5009259;28;20049;-78
2023/04/29 09:15:50;;;;;;;8.10;5.82;;;18.30;54.90;;;;;;4999863;28;20473;-78
2023/04/29 09:18:41;;;;;;;9.98;6.53;;;18.40;54.30;;;;;;5025154;28;20048;-75
2023/04/29 09:21:18;;;;;;;8.35;5.25;;;18.60;53.30;;;;;;5021541;28;20369;-75
2023/04/29 09:23:49;;;;;;;7.60;4.95;;;18.60;53.40;;;;;;5035001;28;20039;-75
2023/04/29 09:26:15;;;;;;;9.95;5.25;;;18.70;52.80;;;;;;5018179;28;20041;-75
2023/04/29 09:28:43;;;;;;;8.25;5.82;;;18.70;52.70;;;;;;5034701;28;20056;-75
2023/04/29 09:31:10;;;;;;;7.47;6.10;;;18.70;51.80;;;;;;5034969;28;20052;-75
2023/04/29 09:33:54;;;;;;;7.38;5.78;;;18.70;50.50;;;;;;5018971;28;20420;-75
2023/04/29 09:36:38;;;;;;;9.50;6.38;;;18.70;49.30;;;;;;5035476;28;20033;-75
2023/04/29 09:39:18;;;;;;;12.70;5.82;;;18.60;50.40;;;;;;5035276;28;20392;-75
2023/04/29 09:41:53;;;;;;;7.47;5.03;;;18.50;49.30;;;;;;5034910;28;20048;-75
2023/04/29 09:44:23;;;;;;;9.55;5.50;;;18.50;52.30;;;;;;5035035;28;20475;-75
2023/04/29 09:46:56;;;;;;;8.45;6.32;;;18.50;51.80;;;;;;5035225;28;20492;-75
2023/04/29 09:49:44;;;;;;;7.32;5.35;;;18.60;50.50;;;;;;5035274;28;20037;-75
2023/04/29 09:52:15;;;;;;;9.05;5.50;;;18.70;52.30;;;;;;5034965;28;20052;-75
2023/04/29 09:54:42;;;;;;;11.20;5.95;;;18.90;51.50;;;;;;5018132;28;20045;-75
2023/04/29 09:57:10;;;;;;;7.22;5.68;;;18.90;51.00;;;;;;5034985;28;20056;-75
2023/04/29 09:59:41;;;;;;;10.02;6.30;;;19.10;48.90;;;;;;5056867;28;20061;-75
2023/04/29 10:02:21;;;;;;;8.55;5.05;;;19.20;49.40;;;;;;5038380;28;20045;-75
2023/04/29 10:04:53;;;;;;;6.50;5.18;;;19.30;50.20;;;;;;5038991;28;20044;-75
2023/04/29 10:07:20;;;;;;;8.20;5.47;;;19.40;50.30;;;;;;5038655;28;20041;-74
2023/04/29 10:09:46;;;;;;;10.13;6.20;;;19.60;48.80;;;;;;5038778;28;20070;-75
2023/04/29 10:12:19;;;;;;;7.50;5.40;;;19.70;48.30;;;;;;5022231;28;20053;-74
2023/04/29 10:15:03;;;;;;;7.70;5.10;;;19.80;48.70;;;;;;5038936;28;20396;-75
2023/04/29 10:17:39;;;;;;;7.65;4.80;;;19.90;47.90;;;;;;5038905;28;20473;-74
2023/04/29 10:20:07;;;;;;;5.38;4.43;;;20.00;46.70;;;;;;5038821;28;20102;-73
2023/04/29 10:22:42;;;;;;;8.10;5.53;;;20.10;46.20;;;;;;5038407;28;20048;-74
2023/04/29 10:25:10;;;;;;;10.40;5.72;;;20.20;46.00;;;;;;5038470;28;20059;-74
2023/04/29 10:27:36;;;;;;;6.80;5.13;;;20.30;44.90;;;;;;5038431;28;20044;-74
2023/04/29 10:30:03;;;;;;;6.90;4.35;;;20.40;45.00;;;;;;5038420;28;20048;-74
2023/04/29 10:32:32;;;;;;;6.38;4.60;;;20.40;44.70;;;;;;5021903;28;20087;-74
2023/04/29 10:34:59;;;;;;;6.05;4.60;;;20.30;43.60;;;;;;5038527;28;20388;-74
2023/04/29 10:37:25;;;;;;;8.27;5.20;;;20.30;43.10;;;;;;5038031;28;20048;-74
2023/04/29 10:40:04;;;;;;;7.28;5.10;;;20.40;44.30;;;;;;5038218;28;20128;-74
2023/04/29 10:42:30;;;;;;;7.85;4.90;;;20.50;44.30;;;;;;5021476;28;20118;-74
2023/04/29 10:45:33;;;;;;;8.75;5.10;;;20.50;44.10;;;;;;5038353;28;20380;-74
2023/04/29 10:48:05;;;;;;;7.70;4.85;;;20.60;40.80;;;;;;5022492;28;20404;-74
2023/04/29 10:50:32;;;;;;;5.97;4.35;;;20.60;42.90;;;;;;5038002;28;20545;-74
2023/04/29 10:53:02;;;;;;;7.32;4.65;;;20.60;41.70;;;;;;5038085;28;20114;-74
2023/04/29 10:55:28;;;;;;;6.72;4.00;;;20.70;42.90;;;;;;5038217;28;20383;-74
2023/04/29 10:57:55;;;;;;;7.60;4.60;;;20.70;44.30;;;;;;5037755;28;20056;-74
2023/04/29 11:00:29;;;;;;;7.00;4.70;;;20.80;44.30;;;;;;5037794;28;20052;-74
2023/04/29 11:02:57;;;;;;;7.15;4.55;;;20.90;44.00;;;;;;5055628;28;20037;-74
2023/04/29 11:05:36;;;;;;;5.45;4.15;;;20.90;41.70;;;;;;5037840;28;20499;-74
2023/04/29 11:08:22;;;;;;;6.10;4.72;;;20.80;41.10;;;;;;5037675;28;20044;-74
2023/04/29 11:10:52;;;;;;;7.35;4.47;;;20.80;41.60;;;;;;5036936;28;20087;-74
2023/04/29 11:13:25;;;;;;;6.55;3.78;;;20.80;42.90;;;;;;5037839;28;20154;-73
2023/04/29 11:16:12;;;;;;;5.80;4.10;;;20.80;42.80;;;;;;5021133;28;20033;-74
2023/04/29 11:19:04;;;;;;;4.90;3.83;;;20.90;42.50;;;;;;5037184;28;20389;-74
2023/04/29 11:21:31;;;;;;;4.82;3.53;;;21.00;42.80;;;;;;5037649;28;20037;-74
2023/04/29 11:23:57;;;;;;;5.97;4.20;;;21.00;42.60;;;;;;5037606;28;20392;-74
2023/04/29 11:26:23;;;;;;;5.25;3.28;;;21.20;40.80;;;;;;5037332;28;20041;-73
2023/04/29 11:28:51;;;;;;;5.70;3.58;;;21.00;39.70;;;;;;5037665;28;20127;-73
2023/04/29 11:31:16;;;;;;;7.25;4.75;;;20.90;40.50;;;;;;5037519;28;20419;-73
2023/04/29 11:33:42;;;;;;;6.38;4.32;;;20.90;39.30;;;;;;5020788;28;20041;-74
2023/04/29 11:36:10;;;;;;;5.63;4.22;;;20.80;39.90;;;;;;5037200;28;20041;-74
2023/04/29 11:38:40;;;;;;;7.60;4.40;;;20.80;40.10;;;;;;5020623;28;20124;-74
2023/04/29 11:41:05;;;;;;;7.88;3.97;;;20.80;40.70;;;;;;5037222;28;20053;-74
2023/04/29 11:43:31;;;;;;;6.18;3.80;;;20.80;42.60;;;;;;5036979;28;20449;-73
2023/04/29 11:45:57;;;;;;;6.55;3.80;;;20.80;41.50;;;;;;5037025;28;20037;-73
2023/04/29 11:48:25;;;;;;;6.82;3.75;;;20.80;41.40;;;;;;5036881;28;20148;-73
2023/04/29 11:50:58;;;;;;;7.88;4.85;;;20.80;41.20;;;;;;5036903;28;20044;-75
2023/04/29 11:53:26;;;;;;;5.90;4.10;;;20.80;40.20;;;;;;5054769;28;20119;-74
2023/04/29 11:55:53;;;;;;;7.15;4.43;;;20.80;41.00;;;;;;5036673;28;20045;-74
2023/04/29 11:58:23;;;;;;;6.70;4.20;;;20.80;40.20;;;;;;5016968;28;20049;-75
2023/04/29 12:00:49;;;;;;;5.70;4.30;;;20.70;40.40;;;;;;5033685;28;20053;-74
2023/04/29 12:03:19;;;;;;;6.55;4.45;;;20.60;39.90;;;;;;5033365;28;20053;-74
2023/04/29 12:05:55;;;;;;;6.43;4.78;;;20.50;40.10;;;;;;5033348;28;20099;-76
2023/04/29 12:08:26;;;;;;;5.65;3.90;;;20.40;40.10;;;;;;5033288;28;20095;-75
2023/04/29 12:10:54;;;;;;;6.55;3.55;;;20.30;40.70;;;;;;5033691;28;20084;-76
2023/04/29 12:13:22;;;;;;;8.48;4.38;;;20.30;42.20;;;;;;5033388;28;20045;-74
2023/04/29 12:15:50;;;;;;;6.35;3.50;;;20.30;42.80;;;;;;5033106;28;20072;-74
2023/04/29 12:18:17;;;;;;;6.93;2.90;;;20.30;42.10;;;;;;5033091;28;20047;-75
2023/04/29 12:20:47;;;;;;;5.55;3.60;;;20.40;42.90;;;;;;5015679;28;20120;-74
2023/04/29 12:23:25;;;;;;;5.60;3.40;;;20.50;41.40;;;;;;5032797;28;20492;-75
2023/04/29 12:25:56;;;;;;;6.03;2.97;;;20.50;40.60;;;;;;5033097;28;20045;-75
2023/04/29 12:28:22;;;;;;;5.80;3.35;;;20.40;39.60;;;;;;5032828;28;20084;-75
2023/04/29 12:30:50;;;;;;;4.80;3.20;;;20.20;39.70;;;;;;5034237;28;20056;-75
2023/04/29 12:33:20;;;;;;;5.43;3.05;;;20.00;40.30;;;;;;5032982;28;20408;-74
2023/04/29 12:35:48;;;;;;;4.55;2.75;;;20.00;38.90;;;;;;5034049;28;20129;-76
2023/04/29 12:38:27;;;;;;;4.45;2.42;;;19.90;41.40;;;;;;5033894;28;20045;-74
2023/04/29 12:40:53;;;;;;;4.60;2.28;;;19.90;41.50;;;;;;5032799;28;20034;-75